createdAt,value
2023-05-20T00:02:15.400Z,3.10
2023-05-20T00:07:16.958Z,2.03
2023-05-20T00:12:18.563Z,3.13
2023-05-20T00:17:20.232Z,3.10
2023-05-20T00:22:22.180Z,4.03
2023-05-20T00:27:23.894Z,3.10
2023-05-20T00:32:25.634Z,2.33
2023-05-20T00:37:27.588Z,2.13
2023-05-20T00:42:29.250Z,3.20
2023-05-20T00:47:33.478Z,3.08
2023-05-20T00:52:35.997Z,4.32
2023-05-20T00:57:37.675Z,2.50
2023-05-20T01:02:39.575Z,3.15
2023-05-20T01:07:41.777Z,6.40
2023-05-20T01:12:51.932Z,3.95
2023-05-20T01:18:00.371Z,3.33
2023-05-20T01:23:03.426Z,2.97
2023-05-20T01:28:05.135Z,4.38
2023-05-20T01:33:10.815Z,2.88
2023-05-20T01:38:13.797Z,3.13
2023-05-20T01:43:17.809Z,2.95
2023-05-20T01:48:20.253Z,3.22
2023-05-20T01:53:21.811Z,3.15
2023-05-20T01:58:23.350Z,4.25
2023-05-20T02:03:25.870Z,3.95
2023-05-20T02:08:27.536Z,2.90
2023-05-20T02:13:29.904Z,3.65
2023-05-20T02:18:31.568Z,3.05
2023-05-20T02:23:33.359Z,4.07
2023-05-20T02:28:34.884Z,4.00
2023-05-20T02:33:36.462Z,3.67
2023-05-20T02:38:38.121Z,4.35
2023-05-20T02:43:39.707Z,3.90
2023-05-20T02:48:41.337Z,5.03
2023-05-20T02:53:42.874Z,3.55
2023-05-20T02:58:44.473Z,3.83
2023-05-20T03:03:46.079Z,2.85
2023-05-20T03:08:47.615Z,3.70
2023-05-20T03:13:49.835Z,4.90
2023-05-20T03:18:52.562Z,3.22
2023-05-20T03:23:54.705Z,4.05
2023-05-20T03:28:56.312Z,4.10
2023-05-20T03:33:57.934Z,3.53
2023-05-20T03:38:59.500Z,2.92
2023-05-20T03:44:01.258Z,3.72
2023-05-20T03:49:03.026Z,5.03
2023-05-20T03:54:05.713Z,4.72
2023-05-20T03:59:07.564Z,5.40
2023-05-20T04:04:09.339Z,5.65
2023-05-20T04:09:12.031Z,2.55
2023-05-20T04:14:13.706Z,3.97
2023-05-20T04:19:15.620Z,4.68
2023-05-20T04:24:18.254Z,4.07
2023-05-20T04:29:20.577Z,3.80
2023-05-20T04:34:22.194Z,3.90
2023-05-20T04:39:24.145Z,4.03
2023-05-20T04:44:27.920Z,4.38
2023-05-20T04:49:29.637Z,3.63
2023-05-20T04:54:32.312Z,4.03
2023-05-20T04:59:34.128Z,2.47
2023-05-20T05:04:35.829Z,4.85
2023-05-20T05:09:37.509Z,4.57
2023-05-20T05:14:39.138Z,4.43
2023-05-20T05:19:40.709Z,4.85
2023-05-20T05:24:42.592Z,4.05
2023-05-20T05:29:44.276Z,5.60
2023-05-20T05:34:45.869Z,4.05
2023-05-20T05:39:47.632Z,7.32
2023-05-20T05:44:49.325Z,4.30
2023-05-20T05:49:52.290Z,5.78
2023-05-20T05:54:54.330Z,4.25
2023-05-20T05:59:56.752Z,4.65
2023-05-20T06:04:59.603Z,3.70
2023-05-20T06:10:01.229Z,5.28
2023-05-20T06:15:04.270Z,4.28
2023-05-20T06:20:07.047Z,3.53
2023-05-20T06:25:10.218Z,3.08
2023-05-20T06:30:12.404Z,3.50
2023-05-20T06:35:15.102Z,2.45
2023-05-20T06:40:16.900Z,4.15
2023-05-20T06:45:19.022Z,4.05
2023-05-20T06:50:26.409Z,3.72
2023-05-20T06:55:28.276Z,5.68
2023-05-20T07:00:29.955Z,5.13
2023-05-20T07:05:32.646Z,3.83
2023-05-20T07:10:34.875Z,3.67
2023-05-20T07:15:36.776Z,3.85
2023-05-20T07:20:40.508Z,2.78
2023-05-20T07:25:51.233Z,5.28
2023-05-20T07:30:55.423Z,4.25
2023-05-20T07:36:03.420Z,4.13
2023-05-20T07:41:05.138Z,4.45
2023-05-20T07:46:08.077Z,4.13
2023-05-20T07:51:09.852Z,6.63
2023-05-20T07:56:11.829Z,4.82
2023-05-20T08:01:14.156Z,3.25
2023-05-20T08:06:16.891Z,4.65
2023-05-20T08:11:18.887Z,3.05
2023-05-20T08:16:23.909Z,3.40
2023-05-20T08:21:25.747Z,3.88
2023-05-20T08:26:27.854Z,3.45
2023-05-20T08:31:30.118Z,3.42
2023-05-20T08:36:31.829Z,4.82
2023-05-20T08:41:34.294Z,4.80
2023-05-20T08:46:36.564Z,4.07
2023-05-20T08:51:39.471Z,4.07
2023-05-20T08:56:41.620Z,3.28
2023-05-20T09:01:44.715Z,3.15
2023-05-20T09:06:47.253Z,4.55
2023-05-20T09:11:48.898Z,4.22
2023-05-20T09:16:50.869Z,2.45
2023-05-20T09:21:53.734Z,3.67
2023-05-20T09:26:55.290Z,4.72
2023-05-20T09:31:57.382Z,3.75
2023-05-20T09:37:00.253Z,4.70
2023-05-20T09:42:07.093Z,4.15
2023-05-20T09:47:09.720Z,3.78
2023-05-20T09:52:12.454Z,4.93
2023-05-20T09:57:14.018Z,3.60
2023-05-20T10:02:15.683Z,4.25
2023-05-20T10:07:42.128Z,3.17
2023-05-20T10:13:23.323Z,3.92
2023-05-20T10:18:46.195Z,4.43
2023-05-20T10:23:47.902Z,3.17
2023-05-20T10:28:49.597Z,4.72
2023-05-20T10:33:53.382Z,3.90
2023-05-20T10:38:57.674Z,5.30
2023-05-20T10:44:05.972Z,4.15
2023-05-20T10:49:18.585Z,3.22
2023-05-20T10:54:20.297Z,4.13
2023-05-20T10:59:22.408Z,5.07
2023-05-20T11:04:24.216Z,4.00
2023-05-20T11:09:25.762Z,4.65
2023-05-20T11:14:30.815Z,4.32
2023-05-20T11:19:32.452Z,4.63
2023-05-20T11:24:34.096Z,3.22
2023-05-20T11:29:35.752Z,4.95
2023-05-20T11:34:38.230Z,4.05
2023-05-20T11:39:39.772Z,4.93
2023-05-20T11:44:44.148Z,4.80
2023-05-20T11:49:48.854Z,6.03
2023-05-20T11:54:53.864Z,4.68
2023-05-20T11:59:55.888Z,3.80
2023-05-20T12:04:57.500Z,5.85
2023-05-20T12:09:59.211Z,4.47
2023-05-20T12:15:00.797Z,3.80
2023-05-20T12:20:02.423Z,4.10
2023-05-20T12:25:04.399Z,4.70
2023-05-20T12:30:07.120Z,4.50
2023-05-20T12:35:09.719Z,4.90
2023-05-20T12:40:12.376Z,4.35
2023-05-20T12:45:13.904Z,6.80
2023-05-20T12:50:15.475Z,4.68
2023-05-20T12:55:17.062Z,5.15
2023-05-20T13:00:18.646Z,4.72
2023-05-20T13:05:20.594Z,9.95
2023-05-20T13:10:22.219Z,4.78
2023-05-20T13:15:23.751Z,4.47
2023-05-20T13:20:25.318Z,6.75
2023-05-20T13:25:27.053Z,5.10
2023-05-20T13:30:28.833Z,4.05
2023-05-20T13:35:30.484Z,5.47
2023-05-20T13:40:32.123Z,5.22
2023-05-20T13:45:33.683Z,5.43
2023-05-20T13:50:35.456Z,4.80
2023-05-20T13:55:37.162Z,4.30
2023-05-20T14:00:39.008Z,4.28
2023-05-20T14:05:41.816Z,4.88
2023-05-20T14:10:43.386Z,5.53
2023-05-20T14:15:45.022Z,5.57
2023-05-20T14:20:46.722Z,6.15
2023-05-20T14:25:48.499Z,4.35
2023-05-20T14:30:50.158Z,4.25
2023-05-20T14:35:51.711Z,5.03
2023-05-20T14:40:53.278Z,5.20
2023-05-20T14:45:54.881Z,6.70
2023-05-20T14:50:56.584Z,4.35
2023-05-20T14:55:58.195Z,4.50
2023-05-20T15:00:59.788Z,3.92
2023-05-20T15:06:01.402Z,5.22
2023-05-20T15:11:03.126Z,5.03
2023-05-20T15:16:05.053Z,4.55
2023-05-20T15:21:06.624Z,4.65
2023-05-20T15:26:08.487Z,5.53
2023-05-20T15:31:10.072Z,4.47
2023-05-20T15:36:11.629Z,4.72
2023-05-20T15:41:13.187Z,4.95
2023-05-20T15:46:14.780Z,4.82
2023-05-20T15:51:16.345Z,3.95
2023-05-20T15:56:17.988Z,5.60
2023-05-20T16:01:19.556Z,3.95
2023-05-20T16:06:21.285Z,4.75
2023-05-20T16:11:22.883Z,5.00
2023-05-20T16:16:25.765Z,4.28
2023-05-20T16:21:27.334Z,6.20
2023-05-20T16:26:29.124Z,4.55
2023-05-20T16:31:30.754Z,4.82
2023-05-20T16:36:32.302Z,4.82
2023-05-20T16:41:34.321Z,4.15
2023-05-20T16:46:35.906Z,8.50
2023-05-20T16:51:37.464Z,7.45
2023-05-20T16:56:39.039Z,5.68
2023-05-20T17:01:40.828Z,4.60
2023-05-20T17:06:42.506Z,6.18
2023-05-20T17:11:44.328Z,4.90
2023-05-20T17:16:45.935Z,5.32
2023-05-20T17:21:47.679Z,4.78
2023-05-20T17:26:49.350Z,5.35
2023-05-20T17:31:50.931Z,5.03
2023-05-20T17:36:52.499Z,4.65
2023-05-20T17:41:54.103Z,10.68
2023-05-20T17:46:55.688Z,4.82
2023-05-20T17:51:57.318Z,5.88
2023-05-20T17:56:58.929Z,6.72
2023-05-20T18:02:00.594Z,5.78
2023-05-20T18:07:02.374Z,6.15
2023-05-20T18:12:04.161Z,4.28
2023-05-20T18:17:05.875Z,7.18
2023-05-20T18:22:07.544Z,6.72
2023-05-20T18:27:09.277Z,6.47
2023-05-20T18:32:10.883Z,4.43
2023-05-20T18:37:12.483Z,5.97
2023-05-20T18:42:14.093Z,6.43
2023-05-20T18:47:15.759Z,6.05
2023-05-20T18:52:17.325Z,8.05
2023-05-20T18:57:18.920Z,8.60
2023-05-20T19:02:20.530Z,6.35
2023-05-20T19:07:22.241Z,7.88
2023-05-20T19:12:23.973Z,8.18
2023-05-20T19:17:25.731Z,7.13
2023-05-20T19:22:27.301Z,8.68
2023-05-20T19:27:28.936Z,7.43
2023-05-20T19:32:30.581Z,10.48
2023-05-20T19:37:32.271Z,8.82
2023-05-20T19:42:33.856Z,6.55
2023-05-20T19:47:36.493Z,8.30
2023-05-20T19:52:38.078Z,8.13
2023-05-20T19:57:40.058Z,9.00
2023-05-20T20:02:41.685Z,9.50
2023-05-20T20:07:43.263Z,10.07
2023-05-20T20:12:44.828Z,7.97
2023-05-20T20:17:46.562Z,7.97
2023-05-20T20:22:48.124Z,12.75
2023-05-20T20:27:49.700Z,11.65
2023-05-20T20:32:51.314Z,12.30
2023-05-20T20:37:52.953Z,6.93
2023-05-20T20:42:54.503Z,8.55
2023-05-20T20:47:56.065Z,8.63
2023-05-20T20:52:57.650Z,9.45
2023-05-20T20:57:59.229Z,9.63
2023-05-20T21:03:00.870Z,9.38
2023-05-20T21:08:03.132Z,7.32
2023-05-20T21:13:04.826Z,11.00
2023-05-20T21:18:06.466Z,9.70
2023-05-20T21:23:08.015Z,10.63
2023-05-20T21:28:09.616Z,8.32
2023-05-20T21:33:11.231Z,9.55
2023-05-20T21:38:12.821Z,11.45
2023-05-20T21:43:14.501Z,7.18
2023-05-20T21:48:17.082Z,12.13
2023-05-20T21:53:18.624Z,8.75
2023-05-20T21:58:20.169Z,9.18
2023-05-20T22:03:21.902Z,8.98
2023-05-20T22:08:23.697Z,10.93
2023-05-20T22:13:25.298Z,9.88
2023-05-20T22:18:26.922Z,12.00
2023-05-20T22:23:28.883Z,10.93
2023-05-20T22:28:30.627Z,11.93
2023-05-20T22:33:32.183Z,14.73
2023-05-20T22:38:33.773Z,13.38
2023-05-20T22:43:35.317Z,14.02
2023-05-20T22:48:36.898Z,11.27
2023-05-20T22:53:38.523Z,12.55
2023-05-20T22:58:41.132Z,12.57
2023-05-20T23:03:42.981Z,13.20
2023-05-20T23:08:44.539Z,14.73
2023-05-20T23:13:46.186Z,12.75
2023-05-20T23:18:48.410Z,15.35
2023-05-20T23:23:50.082Z,16.25
2023-05-20T23:28:52.224Z,13.40
2023-05-20T23:33:53.963Z,17.45
2023-05-20T23:38:56.682Z,15.27
2023-05-20T23:43:58.237Z,15.82
2023-05-20T23:48:59.830Z,16.45
2023-05-20T23:54:01.649Z,15.35
2023-05-20T23:59:03.188Z,17.98
